Time;durP1;ratioP1;P1;durP2;ratioP2;P2;SDS_P1;SDS_P2;PMS_P1;PMS_P2;Temp;Humidity;BMP_temperature;BMP_pressure;BME280_temperature;BME280_humidity;BME280_pressure;Samples;Min_cycle;Max_cycle;Signal;HPM_P1;HPM_P2
2023/10/08 00:01:55;;;;;;;13.80;6.95;;;;;;;17.37;70.38;102160.66;5069949;28;20437;-67
2023/10/08 00:04:21;;;;;;;11.55;6.45;;;;;;;17.30;70.27;102156.69;5071031;28;20025;-67
2023/10/08 00:06:47;;;;;;;15.13;7.05;;;;;;;17.31;70.27;102168.31;5069880;28;20070;-67
2023/10/08 00:09:14;;;;;;;10.77;6.35;;;;;;;17.34;70.23;102174.31;5052824;28;20033;-68
2023/10/08 00:11:40;;;;;;;13.15;6.65;;;;;;;17.20;70.86;102167.22;5074702;28;20039;-67
2023/10/08 00:14:17;;;;;;;12.48;7.13;;;;;;;17.17;71.26;102170.13;5074017;28;20024;-68
2023/10/08 00:16:42;;;;;;;10.30;6.68;;;;;;;17.23;70.17;102171.50;5074224;28;20025;-68
2023/10/08 00:19:09;;;;;;;14.35;6.68;;;;;;;17.21;70.34;102176.16;5073105;28;20102;-68
2023/10/08 00:21:39;;;;;;;12.32;6.40;;;;;;;17.21;70.68;102170.78;5085941;28;20471;-68
2023/10/08 00:24:09;;;;;;;11.85;6.63;;;;;;;17.20;70.44;102179.81;5068806;28;20441;-69
2023/10/08 00:26:39;;;;;;;12.75;6.40;;;;;;;17.11;70.47;102178.63;5070640;28;20036;-68
2023/10/08 00:29:21;;;;;;;10.52;6.72;;;;;;;16.93;71.74;102175.38;5074827;28;20020;-68
2023/10/08 00:31:49;;;;;;;13.43;6.80;;;;;;;16.94;71.80;102177.13;5070027;28;20025;-68
2023/10/08 00:34:15;;;;;;;12.77;6.63;;;;;;;16.96;71.99;102177.84;5070770;28;20475;-68
2023/10/08 00:36:42;;;;;;;14.85;6.95;;;;;;;16.89;71.93;102173.00;5069952;28;20061;-68
2023/10/08 00:39:13;;;;;;;17.05;6.93;;;;;;;16.81;72.17;102186.97;5070446;28;20426;-68
2023/10/08 00:41:42;;;;;;;10.88;6.43;;;;;;;16.72;72.47;102168.75;5071755;28;20021;-68
2023/10/08 00:44:14;;;;;;;13.20;7.35;;;;;;;16.84;72.41;102172.47;5080581;28;20036;-68
2023/10/08 00:46:51;;;;;;;11.00;5.97;;;;;;;16.73;72.73;102174.00;5081989;28;20435;-68
2023/10/08 00:49:24;;;;;;;11.05;6.40;;;;;;;16.71;73.27;102188.53;5069093;28;20017;-67
2023/10/08 00:54:55;;;;;;;15.20;6.82;;;;;;;16.62;73.20;102181.06;5061312;28;20037;-67
2023/10/08 00:57:25;;;;;;;8.98;7.10;;;;;;;16.60;73.66;102188.38;5068645;28;20040;-67
2023/10/08 00:59:55;;;;;;;11.68;6.82;;;;;;;16.61;74.25;102188.28;5071108;28;20020;-67
2023/10/08 01:02:27;;;;;;;11.48;6.95;;;;;;;16.69;73.94;102196.69;5067339;28;20024;-67
2023/10/08 01:04:54;;;;;;;18.20;7.05;;;;;;;16.52;74.36;102191.56;5070598;28;20020;-68
2023/10/08 01:07:21;;;;;;;11.88;7.35;;;;;;;16.40;74.95;102178.97;5069970;28;20021;-68
2023/10/08 01:09:50;;;;;;;11.35;6.70;;;;;;;16.31;75.33;102175.06;5072015;28;20046;-67
2023/10/08 01:15:07;;;;;;;13.43;7.28;;;;;;;16.35;75.23;102169.41;5072475;28;20066;-68
2023/10/08 01:17:38;;;;;;;10.70;7.25;;;;;;;16.18;75.63;102156.22;5068473;28;20052;-67
2023/10/08 01:20:33;;;;;;;13.13;7.30;;;;;;;16.13;76.34;102167.25;5069230;28;20078;-68
2023/10/08 01:22:59;;;;;;;13.50;7.95;;;;;;;16.18;75.90;102174.13;5068507;28;20048;-68
2023/10/08 01:25:29;;;;;;;11.52;7.22;;;;;;;16.25;75.82;102168.28;5068592;28;20094;-68
2023/10/08 01:28:01;;;;;;;15.48;7.28;;;;;;;16.13;76.86;102171.78;5066702;28;20025;-67
2023/10/08 01:30:34;;;;;;;14.18;7.72;;;;;;;16.11;76.30;102161.13;5071403;28;20045;-68
2023/10/08 01:33:02;;;;;;;11.27;7.63;;;;;;;16.00;76.67;102144.88;5070691;28;20468;-67
2023/10/08 01:35:28;;;;;;;11.43;7.63;;;;;;;16.05;76.52;102145.41;5069328;28;20029;-68
2023/10/08 01:37:56;;;;;;;11.30;7.30;;;;;;;15.96;77.04;102145.16;5066791;28;20502;-68
2023/10/08 01:40:21;;;;;;;14.20;7.70;;;;;;;15.97;77.11;102146.88;5070818;28;20375;-68
2023/10/08 01:42:51;;;;;;;13.65;7.43;;;;;;;16.00;77.04;102138.63;5070314;28;20031;-67
2023/10/08 01:45:18;;;;;;;12.00;7.28;;;;;;;15.96;77.35;102137.13;5069167;28;20111;-67
2023/10/08 01:47:43;;;;;;;12.10;7.13;;;;;;;15.89;77.64;102150.94;5067204;28;20020;-68
2023/10/08 01:50:21;;;;;;;12.93;8.00;;;;;;;15.96;77.48;102143.34;5070356;28;20407;-68
2023/10/08 01:52:49;;;;;;;12.82;7.25;;;;;;;15.83;77.91;102154.00;5070334;28;20040;-67
2023/10/08 01:55:18;;;;;;;16.25;8.50;;;;;;;15.99;77.62;102164.59;5070254;28;20020;-67
2023/10/08 01:57:48;;;;;;;11.05;8.13;;;;;;;15.95;77.65;102154.19;5069650;28;20036;-68
2023/10/08 02:00:23;;;;;;;13.60;7.30;;;;;;;15.88;77.86;102162.63;5070551;28;20028;-68
2023/10/08 02:02:51;;;;;;;11.93;7.63;;;;;;;15.85;78.10;102168.19;5069785;28;20048;-67
2023/10/08 02:05:18;;;;;;;12.75;7.70;;;;;;;15.92;77.82;102189.28;5074032;28;20029;-68
2023/10/08 02:07:45;;;;;;;13.68;7.55;;;;;;;15.97;77.37;102177.28;5072663;28;20043;-68
2023/10/08 02:10:11;;;;;;;14.32;7.75;;;;;;;15.90;77.89;102178.63;5073602;28;20037;-67
2023/10/08 02:12:41;;;;;;;13.43;7.82;;;;;;;15.88;77.90;102193.94;5074329;28;20028;-68
2023/10/08 02:15:08;;;;;;;13.93;7.47;;;;;;;15.90;77.57;102174.13;5073561;28;20020;-68
2023/10/08 02:17:34;;;;;;;12.52;7.88;;;;;;;15.72;78.24;102164.56;5073590;28;20106;-67
2023/10/08 02:19:59;;;;;;;13.60;7.85;;;;;;;15.71;78.28;102175.41;5073130;28;20484;-68
2023/10/08 02:22:24;;;;;;;16.05;7.90;;;;;;;15.75;78.02;102171.56;5071474;28;20495;-67
2023/10/08 02:24:50;;;;;;;13.73;7.78;;;;;;;15.82;77.92;102178.25;5073032;28;20436;-67
2023/10/08 02:27:16;;;;;;;16.83;7.90;;;;;;;15.73;77.97;102173.47;5072948;28;20032;-68
2023/10/08 02:29:42;;;;;;;11.43;7.20;;;;;;;15.66;78.42;102178.34;5072271;28;20418;-68
2023/10/08 02:32:07;;;;;;;13.68;8.25;;;;;;;15.78;77.89;102177.59;5074220;28;20017;-67
2023/10/08 02:34:33;;;;;;;13.60;7.72;;;;;;;15.65;78.48;102171.25;5073408;28;20039;-67
2023/10/08 02:36:59;;;;;;;14.50;8.20;;;;;;;15.62;78.91;102172.31;5074360;28;20035;-68
2023/10/08 02:39:28;;;;;;;15.50;7.95;;;;;;;15.81;78.54;102181.91;5071679;28;20440;-68
2023/10/08 02:41:59;;;;;;;16.50;8.57;;;;;;;15.71;78.35;102183.47;5069662;28;20383;-67
2023/10/08 02:44:27;;;;;;;16.30;8.27;;;;;;;15.69;78.81;102188.03;5072223;28;20099;-68
2023/10/08 02:46:55;;;;;;;13.15;8.30;;;;;;;15.61;79.00;102183.97;5070740;28;20024;-68
2023/10/08 02:49:22;;;;;;;15.55;8.43;;;;;;;15.72;78.86;102201.25;5073048;28;20025;-67
2023/10/08 02:51:53;;;;;;;15.38;8.23;;;;;;;15.67;79.34;102204.19;5054097;28;20055;-67
2023/10/08 02:54:31;;;;;;;14.93;8.13;;;;;;;15.63;79.15;102202.66;5069122;28;20106;-68
2023/10/08 02:57:03;;;;;;;10.93;7.63;;;;;;;15.72;78.97;102198.59;5072898;28;20112;-67
2023/10/08 02:59:40;;;;;;;17.55;8.07;;;;;;;15.59;79.41;102198.47;5072772;28;20035;-67
2023/10/08 03:02:28;;;;;;;14.18;8.35;;;;;;;15.72;79.48;102204.81;5073234;28;20028;-68
2023/10/08 03:04:54;;;;;;;13.82;8.05;;;;;;;15.78;78.96;102198.19;5072477;28;20024;-67
2023/10/08 03:07:32;;;;;;;11.27;6.85;;;;;;;15.75;79.76;102193.88;5072207;28;20077;-67
2023/10/08 03:10:17;;;;;;;13.88;7.93;;;;;;;15.65;79.40;102198.94;5070605;28;20111;-68
2023/10/08 03:12:43;;;;;;;11.95;7.00;;;;;;;15.76;79.84;102195.59;5088407;28;20031;-67
2023/10/08 03:15:27;;;;;;;14.77;7.82;;;;;;;15.69;79.48;102190.72;5070829;28;20040;-67
2023/10/08 03:17:53;;;;;;;12.18;7.43;;;;;;;15.67;80.36;102199.72;5069994;28;20025;-67
2023/10/08 03:23:12;;;;;;;14.00;8.00;;;;;;;15.72;79.91;102204.81;5072865;28;20114;-68
2023/10/08 03:25:41;;;;;;;12.50;7.50;;;;;;;15.72;80.22;102217.34;5070030;28;20029;-68
2023/10/08 03:28:08;;;;;;;13.38;7.43;;;;;;;15.60;80.42;102211.75;5071943;28;20029;-67
2023/10/08 03:30:47;;;;;;;16.55;8.27;;;;;;;15.71;80.35;102229.06;5069514;28;20039;-68
2023/10/08 03:33:21;;;;;;;15.77;8.25;;;;;;;15.59;80.63;102220.78;5069072;28;20017;-68
2023/10/08 03:35:47;;;;;;;13.23;8.38;;;;;;;15.54;80.37;102222.88;5073821;28;20470;-67
2023/10/08 03:38:28;;;;;;;14.07;7.90;;;;;;;15.55;81.03;102216.53;5071505;28;20029;-68
2023/10/08 03:41:08;;;;;;;15.35;7.38;;;;;;;15.44;81.11;102210.97;5073710;28;20029;-68
2023/10/08 03:43:34;;;;;;;14.68;7.80;;;;;;;15.54;80.46;102217.50;5070323;28;20032;-67
2023/10/08 03:46:05;;;;;;;14.02;7.22;;;;;;;15.48;81.09;102223.25;5067843;28;20066;-67
2023/10/08 03:48:37;;;;;;;16.30;7.68;;;;;;;15.58;80.52;102226.22;5073769;28;20021;-67
2023/10/08 03:51:11;;;;;;;15.63;7.90;;;;;;;15.44;80.93;102224.38;5067135;28;20095;-67
2023/10/08 03:53:49;;;;;;;13.95;7.18;;;;;;;15.53;80.14;102213.13;5070520;28;20039;-68
2023/10/08 03:56:19;;;;;;;15.25;7.60;;;;;;;15.50;80.04;102213.31;5071914;28;20069;-68
2023/10/08 03:58:46;;;;;;;14.85;7.78;;;;;;;15.50;80.10;102216.00;5070611;28;20025;-67
2023/10/08 04:01:18;;;;;;;13.45;8.18;;;;;;;15.45;80.42;102220.78;5071831;28;20082;-67
2023/10/08 04:06:28;;;;;;;12.30;7.68;;;;;;;15.42;80.41;102212.91;5069416;28;20031;-68
2023/10/08 04:11:49;;;;;;;13.02;7.82;;;;;;;15.36;80.63;102208.78;5069649;28;20040;-67
2023/10/08 04:14:18;;;;;;;15.48;7.22;;;;;;;15.38;80.80;102225.66;5071172;28;20024;-67
2023/10/08 04:16:44;;;;;;;14.63;7.90;;;;;;;15.36;80.99;102218.66;5070503;28;20395;-68
2023/10/08 04:19:10;;;;;;;11.88;7.30;;;;;;;15.34;81.38;102216.06;5069064;28;20110;-68
2023/10/08 04:21:36;;;;;;;16.67;7.63;;;;;;;15.38;80.76;102222.97;5070196;28;20464;-68
2023/10/08 04:24:03;;;;;;;11.90;7.53;;;;;;;15.39;81.28;102230.06;5069069;28;20020;-67
2023/10/08 04:26:31;;;;;;;14.88;7.82;;;;;;;15.42;81.28;102234.38;5069412;28;20043;-68
2023/10/08 04:28:58;;;;;;;13.15;7.03;;;;;;;15.38;81.51;102247.09;5070838;28;20027;-67
2023/10/08 04:31:36;;;;;;;13.85;7.88;;;;;;;15.35;81.86;102247.28;5071001;28;20024;-68
2023/10/08 04:34:06;;;;;;;17.52;8.25;;;;;;;15.43;81.55;102249.47;5069496;28;20040;-67
2023/10/08 04:36:32;;;;;;;15.45;8.05;;;;;;;15.39;81.92;102243.44;5070228;28;20028;-67
2023/10/08 04:39:04;;;;;;;13.55;7.78;;;;;;;15.33;82.17;102237.63;5069904;28;20550;-67
2023/10/08 04:41:29;;;;;;;20.20;7.60;;;;;;;15.30;82.29;102249.38;5066991;28;20024;-68
2023/10/08 04:43:55;;;;;;;16.30;8.02;;;;;;;15.34;81.92;102248.22;5071774;28;20027;-68
2023/10/08 04:49:19;;;;;;;16.92;7.95;;;;;;;15.21;82.57;102248.13;5070157;28;20089;-67
2023/10/08 04:51:45;;;;;;;11.70;7.30;;;;;;;15.15;83.03;102253.84;5070052;28;20016;-67
2023/10/08 04:54:20;;;;;;;15.60;7.65;;;;;;;15.10;83.16;102260.44;5069433;28;20475;-67
2023/10/08 04:56:49;;;;;;;14.05;7.63;;;;;;;15.15;83.27;102261.03;5069732;28;20073;-68
2023/10/08 04:59:21;;;;;;;15.70;8.10;;;;;;;15.08;83.95;102257.81;5070646;28;20017;-68
2023/10/08 05:02:12;;;;;;;23.95;8.02;;;;;;;14.97;83.93;102260.28;5070781;28;20498;-67
2023/10/08 05:04:47;;;;;;;14.82;7.20;;;;;;;15.04;83.73;102258.13;5070065;28;20029;-68
2023/10/08 05:07:27;;;;;;;11.93;7.50;;;;;;;14.99;84.34;102255.69;5053884;28;20032;-67
2023/10/08 05:10:10;;;;;;;18.20;8.30;;;;;;;15.02;84.26;102260.88;5067837;28;20035;-68
2023/10/08 05:12:47;;;;;;;12.73;7.72;;;;;;;14.97;84.30;102257.59;5070305;28;20036;-67
2023/10/08 05:39:41;;;;;;;13.63;7.65;;;;;;;14.79;86.28;102299.72;5073264;28;20040;-67
2023/10/08 05:42:20;;;;;;;11.60;7.15;;;;;;;14.78;86.76;102314.06;5072022;28;20576;-67
2023/10/08 05:44:50;;;;;;;16.25;7.88;;;;;;;14.85;86.34;102325.28;5073770;28;20476;-67
2023/10/08 05:47:38;;;;;;;15.00;7.38;;;;;;;14.78;86.74;102319.44;5073334;28;20086;-67
2023/10/08 05:53:29;;;;;;;13.75;7.95;;;;;;;14.86;86.60;102321.69;5076232;28;20458;-67
2023/10/08 05:55:47;;;;;;;13.27;7.53;;;;;;;14.78;86.71;102298.00;5070707;28;20040;-66
2023/10/08 05:58:13;;;;;;;11.60;7.32;;;;;;;14.76;86.40;102289.19;5071636;28;20483;-68
2023/10/08 06:01:01;;;;;;;16.83;8.35;;;;;;;14.80;86.26;102276.50;5071202;28;20111;-67
2023/10/08 06:03:35;;;;;;;14.73;8.15;;;;;;;14.69;86.44;102264.56;5074326;28;20055;-67
2023/10/08 06:09:05;;;;;;;17.65;8.50;;;;;;;14.56;86.66;102276.97;5072068;28;20111;-67
2023/10/08 06:11:41;;;;;;;14.18;8.73;;;;;;;14.61;86.84;102260.63;5072080;28;20475;-67
2023/10/08 06:14:13;;;;;;;14.55;8.07;;;;;;;14.58;86.49;102256.28;5076833;28;20059;-67
2023/10/08 06:16:46;;;;;;;15.63;8.45;;;;;;;14.63;86.43;102256.03;5072719;28;20502;-68
2023/10/08 06:19:15;;;;;;;17.05;9.25;;;;;;;14.64;86.66;102263.97;5073357;28;20064;-67
2023/10/08 06:21:42;;;;;;;18.50;9.20;;;;;;;14.58;86.85;102274.19;5072778;28;20032;-67
2023/10/08 06:24:16;;;;;;;14.02;8.10;;;;;;;14.59;86.98;102275.88;5072442;28;20147;-67
2023/10/08 06:26:42;;;;;;;14.82;8.90;;;;;;;14.57;87.05;102275.13;5071806;28;20071;-68
2023/10/08 06:29:29;;;;;;;14.95;9.00;;;;;;;14.64;87.33;102287.22;5072732;28;20119;-67
2023/10/08 06:31:56;;;;;;;16.75;8.55;;;;;;;14.65;87.05;102287.13;5071442;28;20107;-67
2023/10/08 06:34:25;;;;;;;17.92;9.25;;;;;;;14.74;87.31;102310.72;5071754;28;20020;-67
2023/10/08 06:36:53;;;;;;;18.27;9.05;;;;;;;14.77;87.40;102298.97;5072954;28;20430;-68
2023/10/08 06:39:25;;;;;;;15.77;8.80;;;;;;;14.73;87.26;102300.06;5055424;28;20028;-68
2023/10/08 06:41:53;;;;;;;15.57;9.05;;;;;;;14.79;87.33;102296.19;5071095;28;20098;-68
2023/10/08 06:44:19;;;;;;;13.15;8.82;;;;;;;14.80;87.35;102296.09;5075058;28;20108;-67
2023/10/08 06:46:45;;;;;;;12.98;8.80;;;;;;;14.73;87.55;102294.72;5073159;28;20115;-68
2023/10/08 06:49:11;;;;;;;18.58;9.13;;;;;;;14.77;87.41;102288.25;5071925;28;20017;-68
2023/10/08 06:51:43;;;;;;;16.55;8.63;;;;;;;14.82;87.49;102301.34;5071619;28;20043;-67
2023/10/08 06:54:10;;;;;;;14.15;9.30;;;;;;;14.71;88.13;102312.72;5068652;28;20483;-68
2023/10/08 06:56:39;;;;;;;17.70;9.85;;;;;;;14.77;87.37;102307.00;5071184;28;20025;-67
2023/10/08 06:59:05;;;;;;;14.80;8.70;;;;;;;14.70;87.70;102309.16;5070923;28;20025;-68
2023/10/08 07:01:38;;;;;;;11.93;8.23;;;;;;;14.82;87.39;102314.75;5075007;28;20103;-68
2023/10/08 07:04:11;;;;;;;19.35;9.75;;;;;;;14.74;88.16;102320.56;5071385;28;20446;-67
2023/10/08 07:06:39;;;;;;;15.73;9.15;;;;;;;14.81;87.36;102323.75;5072450;28;20071;-68
2023/10/08 07:09:06;;;;;;;16.15;9.65;;;;;;;14.80;87.78;102330.94;5068752;28;20032;-68
2023/10/08 07:11:38;;;;;;;16.10;9.88;;;;;;;14.89;87.90;102332.22;5105163;28;20036;-68
2023/10/08 07:14:10;;;;;;;17.55;10.05;;;;;;;14.83;88.19;102325.41;5067991;28;20032;-69
2023/10/08 07:16:36;;;;;;;19.33;10.00;;;;;;;14.88;87.25;102330.47;5073448;28;20025;-67
2023/10/08 07:19:03;;;;;;;18.15;10.65;;;;;;;14.93;87.92;102342.66;5071046;28;21123;-66
2023/10/08 07:21:29;;;;;;;15.80;9.85;;;;;;;14.97;87.50;102335.28;5072298;28;20549;-67
2023/10/08 07:23:59;;;;;;;16.02;10.75;;;;;;;14.99;87.54;102344.97;5075839;28;20048;-67
2023/10/08 07:26:38;;;;;;;17.77;10.70;;;;;;;15.02;87.95;102333.22;5074521;28;20155;-68
2023/10/08 07:29:11;;;;;;;;;;;;;;;15.27;86.53;102338.03;5071368;28;20110;-68
2023/10/08 07:31:42;;;;;;;18.45;10.50;;;;;;;15.13;87.43;102341.50;5069741;28;20275;-67
2023/10/08 07:36:51;;;;;;;18.42;11.30;;;;;;;15.14;87.99;102345.91;5070084;28;20038;-67
2023/10/08 07:39:35;;;;;;;15.43;11.25;;;;;;;15.20;87.46;102342.84;5069332;28;20035;-67
2023/10/08 07:42:08;;;;;;;17.52;11.65;;;;;;;15.18;87.90;102351.97;5071581;28;20051;-67
2023/10/08 07:44:38;;;;;;;21.83;11.80;;;;;;;15.30;87.82;102355.75;5070275;28;20024;-67
2023/10/08 07:47:10;;;;;;;16.27;11.40;;;;;;;15.39;88.08;102350.69;5071852;28;20059;-67
2023/10/08 07:49:36;;;;;;;19.30;12.05;;;;;;;15.42;87.91;102333.56;5072658;28;20466;-67
2023/10/08 07:52:04;;;;;;;18.20;11.77;;;;;;;15.49;87.44;102340.28;5086630;28;20052;-67
2023/10/08 07:54:31;;;;;;;16.92;11.32;;;;;;;15.55;87.34;102337.22;5068626;28;20467;-67
2023/10/08 07:57:09;;;;;;;20.70;12.38;;;;;;;15.74;87.16;102353.13;5071532;28;20537;-67
2023/10/08 07:59:46;;;;;;;17.90;11.48;;;;;;;15.85;87.28;102353.34;5071069;28;20048;-68
2023/10/08 08:02:12;;;;;;;19.65;11.60;;;;;;;15.90;88.17;102355.72;5071820;28;20024;-67
2023/10/08 08:04:50;;;;;;;20.35;11.65;;;;;;;15.92;88.10;102355.63;5072129;28;20024;-67
2023/10/08 08:07:16;;;;;;;20.98;11.63;;;;;;;16.12;87.22;102358.81;5078109;28;20036;-67
2023/10/08 08:09:58;;;;;;;22.02;12.25;;;;;;;16.18;87.84;102364.72;5068253;28;20052;-67
2023/10/08 08:12:25;;;;;;;17.70;12.07;;;;;;;16.17;87.97;102374.63;5088588;28;20032;-67
2023/10/08 08:14:53;;;;;;;24.95;12.45;;;;;;;16.27;88.24;102381.16;5086185;28;20032;-67
2023/10/08 08:17:18;;;;;;;17.75;12.02;;;;;;;16.29;87.53;102381.91;5072659;28;20471;-68
2023/10/08 08:19:47;;;;;;;24.45;13.52;;;;;;;16.32;88.37;102380.84;5070477;28;20132;-67
2023/10/08 08:22:32;;;;;;;22.58;12.25;;;;;;;16.34;88.35;102393.22;5072430;28;20020;-68
2023/10/08 08:25:15;;;;;;;22.55;12.68;;;;;;;16.38;88.63;102393.03;5084912;28;20082;-67
2023/10/08 08:27:43;;;;;;;26.33;12.82;;;;;;;16.40;88.66;102394.66;5078701;28;20479;-67
2023/10/08 08:30:10;;;;;;;22.80;12.48;;;;;;;16.45;89.20;102405.97;5070192;28;20407;-67
2023/10/08 08:32:39;;;;;;;30.23;13.15;;;;;;;16.47;89.20;102406.75;5070541;28;20077;-67
2023/10/08 08:35:09;;;;;;;20.88;12.55;;;;;;;16.52;89.36;102412.69;5075840;28;20032;-67
2023/10/08 08:37:35;;;;;;;24.73;13.82;;;;;;;16.48;89.96;102413.00;5081204;28;20017;-68
2023/10/08 08:40:19;;;;;;;21.77;13.05;;;;;;;16.45;90.63;102414.03;5069888;28;20039;-67
2023/10/08 08:42:48;;;;;;;22.90;13.35;;;;;;;16.45;90.32;102429.28;5083163;28;20473;-67
2023/10/08 08:45:20;;;;;;;;;;;;;;;16.55;88.92;102430.44;5092478;28;20024;-67
2023/10/08 08:47:46;;;;;;;27.52;14.75;;;;;;;16.34;91.59;102428.13;5070023;28;19913;-67
2023/10/08 08:50:11;;;;;;;28.75;15.85;;;;;;;16.35;91.68;102429.00;5070278;28;20024;-67
2023/10/08 08:52:38;;;;;;;30.05;16.35;;;;;;;16.32;91.48;102423.81;5079591;28;20027;-68
2023/10/08 08:55:09;;;;;;;29.58;16.38;;;;;;;16.29;91.61;102426.69;5082415;28;20036;-67
2023/10/08 08:57:39;;;;;;;39.95;18.27;;;;;;;16.33;92.14;102418.34;5084725;28;20039;-67
2023/10/08 09:00:09;;;;;;;37.78;16.55;;;;;;;16.41;91.32;102425.06;5071233;28;20032;-67
2023/10/08 09:02:37;;;;;;;29.48;16.48;;;;;;;16.46;90.80;102414.91;5085981;28;20024;-67
2023/10/08 09:05:13;;;;;;;29.17;16.05;;;;;;;16.59;90.17;102431.97;5091715;28;20024;-66
2023/10/08 09:08:08;;;;;;;33.03;16.90;;;;;;;16.74;89.93;102427.47;5086300;28;20032;-67
2023/10/08 09:10:51;;;;;;;25.95;15.70;;;;;;;16.81;89.29;102439.56;5082053;28;20037;-67
2023/10/08 09:13:21;;;;;;;28.42;15.88;;;;;;;16.84;88.57;102439.38;5091578;28;20035;-67
2023/10/08 09:15:46;;;;;;;29.33;16.45;;;;;;;16.91;88.29;102440.72;5075934;28;20435;-68
2023/10/08 09:18:14;;;;;;;27.40;16.30;;;;;;;16.98;88.02;102439.34;5071326;28;20059;-67
2023/10/08 09:20:43;;;;;;;28.60;17.38;;;;;;;17.08;89.06;102442.28;5082522;28;20510;-67
2023/10/08 09:23:17;;;;;;;35.75;17.77;;;;;;;17.06;88.15;102443.34;5072475;28;20028;-67
2023/10/08 09:26:02;;;;;;;34.38;18.13;;;;;;;17.20;88.03;102430.72;5071111;28;20078;-67
2023/10/08 09:28:32;;;;;;;30.10;17.08;;;;;;;17.33;87.60;102432.63;5070497;28;20024;-67
2023/10/08 09:30:59;;;;;;;29.67;15.73;;;;;;;17.41;87.62;102441.91;5068839;28;20020;-67
2023/10/08 09:33:24;;;;;;;35.08;17.70;;;;;;;17.52;87.41;102429.56;5088853;28;20028;-67
2023/10/08 09:35:57;;;;;;;33.25;17.50;;;;;;;17.66;87.51;102437.56;5083870;28;20028;-67
2023/10/08 09:38:23;;;;;;;31.88;18.17;;;;;;;17.73;86.38;102440.69;5085158;28;20063;-67
2023/10/08 09:40:49;;;;;;;34.85;17.50;;;;;;;17.78;86.11;102446.66;5086613;28;20021;-67
2023/10/08 09:43:16;;;;;;;40.30;17.77;;;;;;;17.82;86.78;102449.03;5085074;28;20028;-67
2023/10/08 09:45:49;;;;;;;37.78;18.90;;;;;;;17.82;85.89;102446.34;5071346;28;20403;-68
2023/10/08 09:48:17;;;;;;;28.52;16.58;;;;;;;17.93;86.63;102448.31;5053630;28;20036;-67
2023/10/08 09:50:44;;;;;;;26.88;16.20;;;;;;;18.02;87.06;102439.59;5070875;28;20475;-67
2023/10/08 09:53:16;;;;;;;35.13;18.10;;;;;;;18.09;85.60;102427.44;5078561;28;20107;-67
2023/10/08 09:55:57;;;;;;;35.72;18.95;;;;;;;18.06;86.40;102432.16;5050634;28;20037;-67
2023/10/08 09:58:25;;;;;;;38.80;20.08;;;;;;;18.15;85.98;102432.41;5067035;28;20063;-67
2023/10/08 10:00:52;;;;;;;33.17;18.27;;;;;;;18.25;85.43;102429.06;5069331;28;20056;-67
2023/10/08 10:03:20;;;;;;;36.42;18.60;;;;;;;18.35;84.86;102424.72;5078272;28;20025;-68
2023/10/08 10:05:45;;;;;;;38.97;19.05;;;;;;;18.38;84.15;102411.03;5067385;28;20043;-68
2023/10/08 10:08:11;;;;;;;40.10;18.63;;;;;;;18.71;83.71;102412.31;5069481;28;20475;-68
2023/10/08 10:10:43;;;;;;;35.30;18.23;;;;;;;18.92;82.72;102405.38;5076313;28;20034;-68
2023/10/08 10:13:11;;;;;;;30.92;17.88;;;;;;;19.03;81.65;102404.56;5085529;28;20028;-67
2023/10/08 10:15:42;;;;;;;35.10;19.52;;;;;;;19.02;82.62;102413.63;5069234;28;20025;-68
2023/10/08 10:18:18;;;;;;;29.50;16.67;;;;;;;19.18;82.53;102414.22;5070724;28;20028;-68
2023/10/08 10:20:45;;;;;;;30.42;17.70;;;;;;;19.26;81.19;102406.41;5070742;28;20056;-68
2023/10/08 10:23:44;;;;;;;34.63;18.20;;;;;;;19.46;80.83;102423.78;5071164;28;20125;-68
2023/10/08 10:26:23;;;;;;;34.88;17.60;;;;;;;19.46;79.86;102426.50;5063017;28;20032;-68
2023/10/08 10:29:10;;;;;;;34.22;18.27;;;;;;;19.56;79.60;102434.78;5087737;28;20062;-67
2023/10/08 10:31:40;;;;;;;37.58;19.55;;;;;;;19.45;79.42;102424.78;5090326;28;20028;-67
2023/10/08 10:34:08;;;;;;;30.27;19.30;;;;;;;19.43;79.07;102418.63;5078515;28;20111;-68
2023/10/08 10:36:39;;;;;;;33.67;19.95;;;;;;;19.52;79.15;102408.97;5077033;28;20028;-67
2023/10/08 10:39:25;;;;;;;35.13;19.33;;;;;;;19.59;78.70;102425.56;5073847;28;20074;-67
2023/10/08 10:41:55;;;;;;;30.90;19.73;;;;;;;19.57;79.23;102423.00;5073064;28;20044;-67
2023/10/08 10:44:21;;;;;;;35.38;21.10;;;;;;;19.44;78.91;102422.19;5064435;28;20050;-67
2023/10/08 10:47:25;;;;;;;31.00;20.02;;;;;;;19.27;79.70;102429.72;5072199;28;20024;-68
2023/10/08 10:52:44;;;;;;;34.83;20.00;;;;;;;19.23;79.87;102443.53;5074459;28;20554;-67
2023/10/08 10:58:11;;;;;;;40.78;22.08;;;;;;;19.04;82.19;102422.50;5071642;28;20406;-67
2023/10/08 11:03:09;;;;;;;32.83;21.27;;;;;;;18.93;83.33;102435.91;5073333;28;20166;-67
2023/10/08 11:05:37;;;;;;;37.25;21.08;;;;;;;18.93;84.22;102428.66;5073533;28;20017;-68
2023/10/08 11:08:06;;;;;;;45.33;21.85;;;;;;;18.82;84.83;102426.75;5081251;28;20494;-67
2023/10/08 11:10:33;;;;;;;39.55;19.95;;;;;;;18.83;85.42;102425.78;5086806;28;20056;-68
2023/10/08 11:13:01;;;;;;;45.97;21.40;;;;;;;18.72;85.68;102425.66;5075780;28;20015;-68
2023/10/08 11:15:40;;;;;;;38.92;21.05;;;;;;;18.69;85.31;102425.03;5071001;28;20029;-68
2023/10/08 11:18:10;;;;;;;40.10;21.00;;;;;;;18.75;85.58;102424.63;5072170;28;20417;-67
2023/10/08 11:20:39;;;;;;;35.72;20.65;;;;;;;18.68;85.79;102434.06;5069671;28;20173;-67
2023/10/08 11:23:18;;;;;;;41.70;20.42;;;;;;;18.67;86.14;102440.44;5069567;28;20387;-67
2023/10/08 11:26:05;;;;;;;41.15;19.20;;;;;;;18.50;86.72;102431.75;5071458;28;20016;-68
2023/10/08 11:28:41;;;;;;;37.13;19.08;;;;;;;18.33;87.40;102430.25;5072592;28;20142;-68
2023/10/08 11:31:10;;;;;;;42.97;19.58;;;;;;;18.37;87.85;102431.75;5071476;28;20051;-68
2023/10/08 11:33:55;;;;;;;36.05;18.15;;;;;;;18.33;88.37;102422.16;5056444;28;20440;-68
2023/10/08 11:36:28;;;;;;;34.35;18.05;;;;;;;18.28;88.47;102429.69;5070365;28;20553;-68
2023/10/08 11:39:00;;;;;;;38.42;17.85;;;;;;;18.29;88.12;102419.78;5071015;28;20036;-68
2023/10/08 11:41:27;;;;;;;30.23;18.05;;;;;;;18.27;88.15;102424.44;5072001;28;20038;-68
2023/10/08 11:43:57;;;;;;;34.45;19.13;;;;;;;18.31;88.43;102428.63;5071775;28;20020;-67
2023/10/08 11:46:38;;;;;;;35.38;21.10;;;;;;;18.32;88.49;102423.16;5084505;28;20016;-68
2023/10/08 11:49:06;;;;;;;36.67;20.23;;;;;;;18.20;88.53;102423.13;5071837;28;20052;-68
2023/10/08 11:51:35;;;;;;;32.22;19.95;;;;;;;18.20;88.53;102415.03;5069502;28;20025;-67
2023/10/08 11:54:06;;;;;;;34.55;18.85;;;;;;;18.30;87.86;102410.75;5070629;28;20051;-67
2023/10/08 11:56:33;;;;;;;32.10;17.27;;;;;;;18.42;88.69;102409.03;5071480;28;20032;-67
2023/10/08 11:59:05;;;;;;;32.25;18.77;;;;;;;18.47;87.27;102409.53;5069453;28;20024;-67
2023/10/08 12:01:35;;;;;;;31.75;19.60;;;;;;;18.54;86.05;102409.00;5071329;28;20111;-68
2023/10/08 12:04:01;;;;;;;33.00;18.85;;;;;;;18.53;85.24;102401.88;5070810;28;20059;-67
2023/10/08 12:06:30;;;;;;;28.30;17.92;;;;;;;18.61;85.28;102398.63;5070144;28;20074;-67
2023/10/08 12:08:58;;;;;;;30.27;17.48;;;;;;;18.72;84.97;102396.00;5069907;28;20043;-67
2023/10/08 12:11:31;;;;;;;28.65;18.05;;;;;;;18.84;84.76;102402.38;5071029;28;20028;-68
2023/10/08 12:13:58;;;;;;;31.40;18.75;;;;;;;18.82;84.40;102399.81;5071317;28;20032;-68
2023/10/08 12:16:26;;;;;;;26.65;18.38;;;;;;;18.70;84.78;102386.31;5071051;28;20024;-68
2023/10/08 12:18:58;;;;;;;36.03;19.35;;;;;;;18.66;84.77;102390.22;5070019;28;20024;-67
2023/10/08 12:21:29;;;;;;;28.67;18.55;;;;;;;18.65;84.95;102392.06;5070485;28;20052;-68
2023/10/08 12:23:55;;;;;;;28.65;17.88;;;;;;;18.50;85.50;102388.63;5069434;28;20063;-68
2023/10/08 12:26:20;;;;;;;30.17;17.70;;;;;;;18.55;85.50;102380.19;5071073;28;20048;-67
2023/10/08 12:28:48;;;;;;;34.53;18.02;;;;;;;18.50;85.46;102382.34;5069841;28;20024;-67
2023/10/08 12:31:21;;;;;;;23.70;17.80;;;;;;;18.47;85.95;102388.84;5100076;28;20032;-68